sensor_id;sensor_type;location;lat;lon;timestamp;P1;P2;P0
49708;PMS5003;35601;55.902;13.606;2024-01-16T00:02:14;1;1;
49708;PMS5003;35601;55.902;13.606;2024-01-16T00:04:40;1;1;
49708;PMS5003;35601;55.902;13.606;2024-01-16T00:07:05;7;4;
49708;PMS5003;35601;55.902;13.606;2024-01-16T00:09:32;4;4;
49708;PMS5003;35601;55.902;13.606;2024-01-16T00:11:57;1;1;
49708;PMS5003;35601;55.902;13.606;2024-01-16T00:14:23;2;1;
49708;PMS5003;35601;55.902;13.606;2024-01-16T00:16:48;4;1;
49708;PMS5003;35601;55.902;13.606;2024-01-16T00:19:14;1;1;
49708;PMS5003;35601;55.902;13.606;2024-01-16T00:21:40;4;1;
49708;PMS5003;35601;55.902;13.606;2024-01-16T00:24:06;4;4;
49708;PMS5003;35601;55.902;13.606;2024-01-16T00:26:31;3;3;
49708;PMS5003;35601;55.902;13.606;2024-01-16T00:28:57;4;4;
49708;PMS5003;35601;55.902;13.606;2024-01-16T00:31:23;4;4;
49708;PMS5003;35601;55.902;13.606;2024-01-16T00:33:49;3;3;
49708;PMS5003;35601;55.902;13.606;2024-01-16T00:36:14;3;3;
49708;PMS5003;35601;55.902;13.606;2024-01-16T00:38:40;4;4;
49708;PMS5003;35601;55.902;13.606;2024-01-16T00:41:06;4;4;
49708;PMS5003;35601;55.902;13.606;2024-01-16T00:43:32;6;3;
49708;PMS5003;35601;55.902;13.606;2024-01-16T00:45:57;6;3;
49708;PMS5003;35601;55.902;13.606;2024-01-16T00:48:23;7;3;
49708;PMS5003;35601;55.902;13.606;2024-01-16T00:50:49;3;3;
49708;PMS5003;35601;55.902;13.606;2024-01-16T00:53:15;3;3;
49708;PMS5003;35601;55.902;13.606;2024-01-16T00:55:40;6;3;
49708;PMS5003;35601;55.902;13.606;2024-01-16T00:58:06;4;4;
49708;PMS5003;35601;55.902;13.606;2024-01-16T01:00:32;4;1;
49708;PMS5003;35601;55.902;13.606;2024-01-16T01:02:58;3;3;
49708;PMS5003;35601;55.902;13.606;2024-01-16T01:05:24;6;3;
49708;PMS5003;35601;55.902;13.606;2024-01-16T01:07:49;4;4;
49708;PMS5003;35601;55.902;13.606;2024-01-16T01:10:15;12;6;
49708;PMS5003;35601;55.902;13.606;2024-01-16T01:12:40;10;7;
49708;PMS5003;35601;55.902;13.606;2024-01-16T01:15:07;6;6;
49708;PMS5003;35601;55.902;13.606;2024-01-16T01:17:32;9;6;
49708;PMS5003;35601;55.902;13.606;2024-01-16T01:19:58;6;3;
49708;PMS5003;35601;55.902;13.606;2024-01-16T01:22:24;6;4;
49708;PMS5003;35601;55.902;13.606;2024-01-16T01:24:49;7;4;
49708;PMS5003;35601;55.902;13.606;2024-01-16T01:27:15;15;12;
49708;PMS5003;35601;55.902;13.606;2024-01-16T01:29:41;12;10;
49708;PMS5003;35601;55.902;13.606;2024-01-16T01:32:07;19;12;
49708;PMS5003;35601;55.902;13.606;2024-01-16T01:34:32;21;15;
49708;PMS5003;35601;55.902;13.606;2024-01-16T01:36:58;16;13;
49708;PMS5003;35601;55.902;13.606;2024-01-16T01:39:23;22;18;
49708;PMS5003;35601;55.902;13.606;2024-01-16T01:41:49;18;13;
49708;PMS5003;35601;55.902;13.606;2024-01-16T01:44:15;13;12;
49708;PMS5003;35601;55.902;13.606;2024-01-16T01:46:41;7;6;
49708;PMS5003;35601;55.902;13.606;2024-01-16T01:49:06;4;4;
49708;PMS5003;35601;55.902;13.606;2024-01-16T01:51:32;4;4;
49708;PMS5003;35601;55.902;13.606;2024-01-16T01:53:58;3;3;
49708;PMS5003;35601;55.902;13.606;2024-01-16T01:56:24;4;3;
49708;PMS5003;35601;55.902;13.606;2024-01-16T01:58:52;3;3;
49708;PMS5003;35601;55.902;13.606;2024-01-16T02:01:16;4;1;
49708;PMS5003;35601;55.902;13.606;2024-01-16T02:03:42;1;1;
49708;PMS5003;35601;55.902;13.606;2024-01-16T02:06:07;3;3;
49708;PMS5003;35601;55.902;13.606;2024-01-16T02:08:33;21;13;
49708;PMS5003;35601;55.902;13.606;2024-01-16T02:10:58;22;15;
49708;PMS5003;35601;55.902;13.606;2024-01-16T02:13:24;16;12;
49708;PMS5003;35601;55.902;13.606;2024-01-16T02:15:50;9;7;
49708;PMS5003;35601;55.902;13.606;2024-01-16T02:18:16;9;7;
49708;PMS5003;35601;55.902;13.606;2024-01-16T02:20:41;6;6;
49708;PMS5003;35601;55.902;13.606;2024-01-16T02:23:07;9;6;
49708;PMS5003;35601;55.902;13.606;2024-01-16T02:25:33;4;4;
49708;PMS5003;35601;55.902;13.606;2024-01-16T02:27:59;4;4;
49708;PMS5003;35601;55.902;13.606;2024-01-16T02:30:24;9;4;
49708;PMS5003;35601;55.902;13.606;2024-01-16T02:32:50;12;6;
49708;PMS5003;35601;55.902;13.606;2024-01-16T02:35:17;7;6;
49708;PMS5003;35601;55.902;13.606;2024-01-16T02:37:42;7;4;
49708;PMS5003;35601;55.902;13.606;2024-01-16T02:40:08;12;7;
49708;PMS5003;35601;55.902;13.606;2024-01-16T02:42:33;9;6;
49708;PMS5003;35601;55.902;13.606;2024-01-16T02:44:59;4;4;
49708;PMS5003;35601;55.902;13.606;2024-01-16T02:47:25;3;3;
49708;PMS5003;35601;55.902;13.606;2024-01-16T02:49:51;4;1;
49708;PMS5003;35601;55.902;13.606;2024-01-16T02:52:17;1;1;
49708;PMS5003;35601;55.902;13.606;2024-01-16T02:54:42;4;3;
49708;PMS5003;35601;55.902;13.606;2024-01-16T02:57:08;4;3;
49708;PMS5003;35601;55.902;13.606;2024-01-16T02:59:34;4;4;
49708;PMS5003;35601;55.902;13.606;2024-01-16T03:02:00;6;4;
49708;PMS5003;35601;55.902;13.606;2024-01-16T03:04:26;4;4;
49708;PMS5003;35601;55.902;13.606;2024-01-16T03:06:51;7;4;
49708;PMS5003;35601;55.902;13.606;2024-01-16T03:09:17;6;4;
49708;PMS5003;35601;55.902;13.606;2024-01-16T03:11:43;7;6;
49708;PMS5003;35601;55.902;13.606;2024-01-16T03:14:08;3;3;
49708;PMS5003;35601;55.902;13.606;2024-01-16T03:16:34;9;4;
49708;PMS5003;35601;55.902;13.606;2024-01-16T03:19:00;3;3;
49708;PMS5003;35601;55.902;13.606;2024-01-16T03:21:26;4;4;
49708;PMS5003;35601;55.902;13.606;2024-01-16T03:23:51;6;3;
49708;PMS5003;35601;55.902;13.606;2024-01-16T03:26:17;6;6;
49708;PMS5003;35601;55.902;13.606;2024-01-16T03:28:43;7;4;
49708;PMS5003;35601;55.902;13.606;2024-01-16T03:31:09;3;3;
49708;PMS5003;35601;55.902;13.606;2024-01-16T03:33:35;4;4;
49708;PMS5003;35601;55.902;13.606;2024-01-16T03:36:01;4;4;
49708;PMS5003;35601;55.902;13.606;2024-01-16T03:38:26;3;3;
49708;PMS5003;35601;55.902;13.606;2024-01-16T03:40:52;3;1;
49708;PMS5003;35601;55.902;13.606;2024-01-16T03:43:18;9;6;
49708;PMS5003;35601;55.902;13.606;2024-01-16T03:45:44;4;3;
49708;PMS5003;35601;55.902;13.606;2024-01-16T03:48:10;3;3;
49708;PMS5003;35601;55.902;13.606;2024-01-16T03:50:35;3;3;
49708;PMS5003;35601;55.902;13.606;2024-01-16T03:53:01;3;3;
49708;PMS5003;35601;55.902;13.606;2024-01-16T03:55:27;4;4;
49708;PMS5003;35601;55.902;13.606;2024-01-16T03:57:53;4;4;
49708;PMS5003;35601;55.902;13.606;2024-01-16T04:00:19;4;4;
49708;PMS5003;35601;55.902;13.606;2024-01-16T04:02:44;4;4;
49708;PMS5003;35601;55.902;13.606;2024-01-16T04:05:10;7;3;
49708;PMS5003;35601;55.902;13.606;2024-01-16T04:07:36;3;3;
49708;PMS5003;35601;55.902;13.606;2024-01-16T04:10:02;4;1;
49708;PMS5003;35601;55.902;13.606;2024-01-16T04:12:28;6;4;
49708;PMS5003;35601;55.902;13.606;2024-01-16T04:14:53;3;3;
49708;PMS5003;35601;55.902;13.606;2024-01-16T04:17:19;3;3;
49708;PMS5003;35601;55.902;13.606;2024-01-16T04:19:45;3;3;
49708;PMS5003;35601;55.902;13.606;2024-01-16T04:22:11;3;3;
49708;PMS5003;35601;55.902;13.606;2024-01-16T04:24:37;3;3;
49708;PMS5003;35601;55.902;13.606;2024-01-16T04:27:03;4;3;
49708;PMS5003;35601;55.902;13.606;2024-01-16T04:29:28;3;3;
49708;PMS5003;35601;55.902;13.606;2024-01-16T04:31:54;4;4;
49708;PMS5003;35601;55.902;13.606;2024-01-16T04:34:20;9;6;
49708;PMS5003;35601;55.902;13.606;2024-01-16T04:36:45;6;6;
49708;PMS5003;35601;55.902;13.606;2024-01-16T04:39:11;6;3;
49708;PMS5003;35601;55.902;13.606;2024-01-16T04:41:37;1;1;
49708;PMS5003;35601;55.902;13.606;2024-01-16T04:44:03;1;1;
49708;PMS5003;35601;55.902;13.606;2024-01-16T04:46:29;1;1;
49708;PMS5003;35601;55.902;13.606;2024-01-16T04:48:54;4;4;
49708;PMS5003;35601;55.902;13.606;2024-01-16T04:51:20;7;3;
49708;PMS5003;35601;55.902;13.606;2024-01-16T04:53:46;1;1;
49708;PMS5003;35601;55.902;13.606;2024-01-16T04:56:12;3;3;
49708;PMS5003;35601;55.902;13.606;2024-01-16T04:58:38;7;3;
49708;PMS5003;35601;55.902;13.606;2024-01-16T05:01:04;7;4;
49708;PMS5003;35601;55.902;13.606;2024-01-16T05:03:29;6;3;
49708;PMS5003;35601;55.902;13.606;2024-01-16T05:05:55;1;1;
49708;PMS5003;35601;55.902;13.606;2024-01-16T05:08:21;3;3;
49708;PMS5003;35601;55.902;13.606;2024-01-16T05:10:47;7;3;
49708;PMS5003;35601;55.902;13.606;2024-01-16T05:13:13;3;3;
49708;PMS5003;35601;55.902;13.606;2024-01-16T05:15:39;6;3;
49708;PMS5003;35601;55.902;13.606;2024-01-16T05:18:04;4;4;
49708;PMS5003;35601;55.902;13.606;2024-01-16T05:20:30;6;6;
49708;PMS5003;35601;55.902;13.606;2024-01-16T05:22:56;7;7;
49708;PMS5003;35601;55.902;13.606;2024-01-16T05:25:22;6;6;
49708;PMS5003;35601;55.902;13.606;2024-01-16T05:27:48;4;4;
49708;PMS5003;35601;55.902;13.606;2024-01-16T05:30:13;6;6;
49708;PMS5003;35601;55.902;13.606;2024-01-16T05:32:39;12;6;
49708;PMS5003;35601;55.902;13.606;2024-01-16T05:35:05;7;6;
49708;PMS5003;35601;55.902;13.606;2024-01-16T05:37:31;7;6;
49708;PMS5003;35601;55.902;13.606;2024-01-16T05:39:56;9;7;
49708;PMS5003;35601;55.902;13.606;2024-01-16T05:42:22;12;10;
49708;PMS5003;35601;55.902;13.606;2024-01-16T05:44:48;13;9;
49708;PMS5003;35601;55.902;13.606;2024-01-16T05:47:13;13;12;
49708;PMS5003;35601;55.902;13.606;2024-01-16T05:49:39;9;9;
49708;PMS5003;35601;55.902;13.606;2024-01-16T05:52:05;12;7;
49708;PMS5003;35601;55.902;13.606;2024-01-16T05:54:31;12;7;
49708;PMS5003;35601;55.902;13.606;2024-01-16T05:56:56;15;15;
49708;PMS5003;35601;55.902;13.606;2024-01-16T05:59:22;36;24;
49708;PMS5003;35601;55.902;13.606;2024-01-16T06:01:47;22;18;
49708;PMS5003;35601;55.902;13.606;2024-01-16T06:04:13;19;16;
49708;PMS5003;35601;55.902;13.606;2024-01-16T06:06:38;27;22;
49708;PMS5003;35601;55.902;13.606;2024-01-16T06:09:05;48;39;
49708;PMS5003;35601;55.902;13.606;2024-01-16T06:11:30;33;28;
49708;PMS5003;35601;55.902;13.606;2024-01-16T06:13:55;30;25;
49708;PMS5003;35601;55.902;13.606;2024-01-16T06:16:20;27;22;
49708;PMS5003;35601;55.902;13.606;2024-01-16T06:18:46;24;18;
49708;PMS5003;35601;55.902;13.606;2024-01-16T06:21:12;10;10;
49708;PMS5003;35601;55.902;13.606;2024-01-16T06:23:37;19;16;
49708;PMS5003;35601;55.902;13.606;2024-01-16T06:26:03;46;36;
49708;PMS5003;35601;55.902;13.606;2024-01-16T06:28:28;48;40;
49708;PMS5003;35601;55.902;13.606;2024-01-16T06:30:53;30;28;
49708;PMS5003;35601;55.902;13.606;2024-01-16T06:33:18;33;33;
49708;PMS5003;35601;55.902;13.606;2024-01-16T06:35:44;34;30;
49708;PMS5003;35601;55.902;13.606;2024-01-16T06:38:10;67;57;
49708;PMS5003;35601;55.902;13.606;2024-01-16T06:40:35;39;36;
49708;PMS5003;35601;55.902;13.606;2024-01-16T06:43:00;19;19;
49708;PMS5003;35601;55.902;13.606;2024-01-16T06:45:26;12;12;
49708;PMS5003;35601;55.902;13.606;2024-01-16T06:47:51;6;6;
49708;PMS5003;35601;55.902;13.606;2024-01-16T06:50:17;6;6;
49708;PMS5003;35601;55.902;13.606;2024-01-16T06:52:43;4;4;
49708;PMS5003;35601;55.902;13.606;2024-01-16T06:55:09;6;6;
49708;PMS5003;35601;55.902;13.606;2024-01-16T06:57:35;9;7;
49708;PMS5003;35601;55.902;13.606;2024-01-16T07:00:01;9;6;
49708;PMS5003;35601;55.902;13.606;2024-01-16T07:02:26;7;6;
49708;PMS5003;35601;55.902;13.606;2024-01-16T07:04:52;4;4;
49708;PMS5003;35601;55.902;13.606;2024-01-16T07:07:17;6;4;
49708;PMS5003;35601;55.902;13.606;2024-01-16T07:09:43;4;4;
49708;PMS5003;35601;55.902;13.606;2024-01-16T07:12:09;3;3;
49708;PMS5003;35601;55.902;13.606;2024-01-16T07:14:35;10;7;
49708;PMS5003;35601;55.902;13.606;2024-01-16T07:17:00;12;9;
49708;PMS5003;35601;55.902;13.606;2024-01-16T07:19:25;15;9;
49708;PMS5003;35601;55.902;13.606;2024-01-16T07:21:50;9;7;
49708;PMS5003;35601;55.902;13.606;2024-01-16T07:24:16;6;6;
49708;PMS5003;35601;55.902;13.606;2024-01-16T07:26:42;6;6;
49708;PMS5003;35601;55.902;13.606;2024-01-16T07:29:08;24;19;
49708;PMS5003;35601;55.902;13.606;2024-01-16T07:31:34;9;7;
49708;PMS5003;35601;55.902;13.606;2024-01-16T07:34:00;9;9;
49708;PMS5003;35601;55.902;13.606;2024-01-16T07:36:26;6;4;
49708;PMS5003;35601;55.902;13.606;2024-01-16T07:38:51;10;10;
49708;PMS5003;35601;55.902;13.606;2024-01-16T07:41:17;18;13;
49708;PMS5003;35601;55.902;13.606;2024-01-16T07:43:43;16;16;
49708;PMS5003;35601;55.902;13.606;2024-01-16T07:46:08;22;18;
49708;PMS5003;35601;55.902;13.606;2024-01-16T07:48:34;36;30;
49708;PMS5003;35601;55.902;13.606;2024-01-16T07:50:59;27;24;
49708;PMS5003;35601;55.902;13.606;2024-01-16T07:53:25;39;33;
49708;PMS5003;35601;55.902;13.606;2024-01-16T07:55:50;16;16;
49708;PMS5003;35601;55.902;13.606;2024-01-16T07:58:16;25;24;
49708;PMS5003;35601;55.902;13.606;2024-01-16T08:00:41;97;82;
49708;PMS5003;35601;55.902;13.606;2024-01-16T08:03:07;100;72;
49708;PMS5003;35601;55.902;13.606;2024-01-16T08:05:33;153;114;
49708;PMS5003;35601;55.902;13.606;2024-01-16T08:07:58;160;115;
49708;PMS5003;35601;55.902;13.606;2024-01-16T08:10:23;213;145;
49708;PMS5003;35601;55.902;13.606;2024-01-16T08:12:49;258;174;
49708;PMS5003;35601;55.902;13.606;2024-01-16T08:15:14;207;151;
49708;PMS5003;35601;55.902;13.606;2024-01-16T08:17:40;145;108;
49708;PMS5003;35601;55.902;13.606;2024-01-16T08:20:06;66;46;
49708;PMS5003;35601;55.902;13.606;2024-01-16T08:22:31;36;28;
49708;PMS5003;35601;55.902;13.606;2024-01-16T08:24:56;34;25;
49708;PMS5003;35601;55.902;13.606;2024-01-16T08:27:21;27;25;
49708;PMS5003;35601;55.902;13.606;2024-01-16T08:29:46;25;19;
49708;PMS5003;35601;55.902;13.606;2024-01-16T08:32:12;190;127;
49708;PMS5003;35601;55.902;13.606;2024-01-16T08:34:37;129;91;
49708;PMS5003;35601;55.902;13.606;2024-01-16T08:37:02;183;139;
49708;PMS5003;35601;55.902;13.606;2024-01-16T08:39:28;121;87;
49708;PMS5003;35601;55.902;13.606;2024-01-16T08:41:53;34;22;
49708;PMS5003;35601;55.902;13.606;2024-01-16T08:44:19;10;9;
49708;PMS5003;35601;55.902;13.606;2024-01-16T08:46:44;18;9;
49708;PMS5003;35601;55.902;13.606;2024-01-16T08:49:10;105;81;
49708;PMS5003;35601;55.902;13.606;2024-01-16T08:51:36;58;49;
49708;PMS5003;35601;55.902;13.606;2024-01-16T08:54:01;43;39;
49708;PMS5003;35601;55.902;13.606;2024-01-16T08:56:27;34;30;
49708;PMS5003;35601;55.902;13.606;2024-01-16T08:58:53;42;36;
49708;PMS5003;35601;55.902;13.606;2024-01-16T09:01:18;87;69;
49708;PMS5003;35601;55.902;13.606;2024-01-16T09:03:43;60;54;
49708;PMS5003;35601;55.902;13.606;2024-01-16T09:06:09;82;75;
49708;PMS5003;35601;55.902;13.606;2024-01-16T09:08:34;48;42;
49708;PMS5003;35601;55.902;13.606;2024-01-16T09:11:00;37;28;
49708;PMS5003;35601;55.902;13.606;2024-01-16T09:13:25;78;67;
49708;PMS5003;35601;55.902;13.606;2024-01-16T09:15:51;87;64;
49708;PMS5003;35601;55.902;13.606;2024-01-16T09:18:17;18;13;
49708;PMS5003;35601;55.902;13.606;2024-01-16T09:20:43;9;7;
49708;PMS5003;35601;55.902;13.606;2024-01-16T09:23:09;6;6;
49708;PMS5003;35601;55.902;13.606;2024-01-16T09:25:35;7;6;
49708;PMS5003;35601;55.902;13.606;2024-01-16T09:28:00;9;7;
49708;PMS5003;35601;55.902;13.606;2024-01-16T09:30:26;28;22;
49708;PMS5003;35601;55.902;13.606;2024-01-16T09:32:52;15;15;
49708;PMS5003;35601;55.902;13.606;2024-01-16T09:35:17;13;12;
49708;PMS5003;35601;55.902;13.606;2024-01-16T09:37:42;24;19;
49708;PMS5003;35601;55.902;13.606;2024-01-16T09:40:08;40;31;
49708;PMS5003;35601;55.902;13.606;2024-01-16T09:42:34;29;20;
49708;PMS5003;35601;55.902;13.606;2024-01-16T09:44:59;32;25;
49708;PMS5003;35601;55.902;13.606;2024-01-16T09:47:24;26;23;
49708;PMS5003;35601;55.902;13.606;2024-01-16T09:49:49;32;25;
49708;PMS5003;35601;55.902;13.606;2024-01-16T09:52:15;23;22;
49708;PMS5003;35601;55.902;13.606;2024-01-16T09:54:40;24;22;
49708;PMS5003;35601;55.902;13.606;2024-01-16T09:57:06;25;17;
49708;PMS5003;35601;55.902;13.606;2024-01-16T09:59:30;102;66;
49708;PMS5003;35601;55.902;13.606;2024-01-16T10:01:56;102;78;
49708;PMS5003;35601;55.902;13.606;2024-01-16T10:04:22;94;75;
49708;PMS5003;35601;55.902;13.606;2024-01-16T10:06:47;59;49;
49708;PMS5003;35601;55.902;13.606;2024-01-16T10:09:12;58;43;
49708;PMS5003;35601;55.902;13.606;2024-01-16T10:11:38;50;37;
49708;PMS5003;35601;55.902;13.606;2024-01-16T10:14:03;41;35;
49708;PMS5003;35601;55.902;13.606;2024-01-16T10:18:55;13;8;
49708;PMS5003;35601;55.902;13.606;2024-01-16T10:21:21;14;13;
49708;PMS5003;35601;55.902;13.606;2024-01-16T10:23:46;8;7;
49708;PMS5003;35601;55.902;13.606;2024-01-16T10:26:12;10;10;
49708;PMS5003;35601;55.902;13.606;2024-01-16T10:28:38;11;11;
49708;PMS5003;35601;55.902;13.606;2024-01-16T10:31:03;10;8;
49708;PMS5003;35601;55.902;13.606;2024-01-16T10:33:29;15;11;
49708;PMS5003;35601;55.902;13.606;2024-01-16T10:38:20;14;11;
49708;PMS5003;35601;55.902;13.606;2024-01-16T10:40:46;15;14;
49708;PMS5003;35601;55.902;13.606;2024-01-16T10:43:13;25;18;
49708;PMS5003;35601;55.902;13.606;2024-01-16T10:45:37;18;12;
49708;PMS5003;35601;55.902;13.606;2024-01-16T10:48:03;13;11;
49708;PMS5003;35601;55.902;13.606;2024-01-16T10:50:28;16;13;
49708;PMS5003;35601;55.902;13.606;2024-01-16T10:52:54;17;11;
49708;PMS5003;35601;55.902;13.606;2024-01-16T10:55:21;26;21;
49708;PMS5003;35601;55.902;13.606;2024-01-16T10:57:44;21;16;
49708;PMS5003;35601;55.902;13.606;2024-01-16T11:00:10;21;16;
49708;PMS5003;35601;55.902;13.606;2024-01-16T11:02:38;17;17;
49708;PMS5003;35601;55.902;13.606;2024-01-16T11:05:01;18;14;
49708;PMS5003;35601;55.902;13.606;2024-01-16T11:07:26;18;13;
49708;PMS5003;35601;55.902;13.606;2024-01-16T11:09:52;12;10;
49708;PMS5003;35601;55.902;13.606;2024-01-16T11:12:18;9;9;
49708;PMS5003;35601;55.902;13.606;2024-01-16T11:14:44;11;8;
49708;PMS5003;35601;55.902;13.606;2024-01-16T11:17:09;8;8;
49708;PMS5003;35601;55.902;13.606;2024-01-16T11:19:35;8;5;
49708;PMS5003;35601;55.902;13.606;2024-01-16T11:22:00;8;6;
49708;PMS5003;35601;55.902;13.606;2024-01-16T11:24:26;16;10;
49708;PMS5003;35601;55.902;13.606;2024-01-16T11:26:51;12;8;
49708;PMS5003;35601;55.902;13.606;2024-01-16T11:31:43;12;8;
49708;PMS5003;35601;55.902;13.606;2024-01-16T11:34:08;13;12;
49708;PMS5003;35601;55.902;13.606;2024-01-16T11:36:42;14;10;
49708;PMS5003;35601;55.902;13.606;2024-01-16T11:38:59;18;13;
49708;PMS5003;35601;55.902;13.606;2024-01-16T11:43:51;15;11;
49708;PMS5003;35601;55.902;13.606;2024-01-16T11:46:16;7;6;
49708;PMS5003;35601;55.902;13.606;2024-01-16T11:48:42;13;10;
49708;PMS5003;35601;55.902;13.606;2024-01-16T11:53:33;33;28;
49708;PMS5003;35601;55.902;13.606;2024-01-16T11:56:02;76;62;
49708;PMS5003;35601;55.902;13.606;2024-01-16T11:58:33;65;51;
49708;PMS5003;35601;55.902;13.606;2024-01-16T12:00:49;24;23;
49708;PMS5003;35601;55.902;13.606;2024-01-16T12:03:14;26;17;
49708;PMS5003;35601;55.902;13.606;2024-01-16T12:05:39;34;33;
49708;PMS5003;35601;55.902;13.606;2024-01-16T12:08:04;21;19;
49708;PMS5003;35601;55.902;13.606;2024-01-16T12:10:30;12;11;
49708;PMS5003;35601;55.902;13.606;2024-01-16T12:12:57;11;9;
49708;PMS5003;35601;55.902;13.606;2024-01-16T12:15:21;15;15;
49708;PMS5003;35601;55.902;13.606;2024-01-16T12:17:52;12;7;
49708;PMS5003;35601;55.902;13.606;2024-01-16T12:20:16;6;5;
49708;PMS5003;35601;55.902;13.606;2024-01-16T12:22:38;7;3;
49708;PMS5003;35601;55.902;13.606;2024-01-16T12:25:04;16;10;
49708;PMS5003;35601;55.902;13.606;2024-01-16T12:27:29;10;10;
49708;PMS5003;35601;55.902;13.606;2024-01-16T12:32:20;24;17;
49708;PMS5003;35601;55.902;13.606;2024-01-16T12:34:46;42;39;
49708;PMS5003;35601;55.902;13.606;2024-01-16T12:37:11;145;125;
49708;PMS5003;35601;55.902;13.606;2024-01-16T12:39:36;76;71;
49708;PMS5003;35601;55.902;13.606;2024-01-16T12:42:01;17;17;
49708;PMS5003;35601;55.902;13.606;2024-01-16T12:44:27;11;10;
49708;PMS5003;35601;55.902;13.606;2024-01-16T12:46:53;8;8;
49708;PMS5003;35601;55.902;13.606;2024-01-16T12:49:18;2;2;
49708;PMS5003;35601;55.902;13.606;2024-01-16T12:51:44;8;6;
49708;PMS5003;35601;55.902;13.606;2024-01-16T12:54:11;3;2;
49708;PMS5003;35601;55.902;13.606;2024-01-16T12:56:35;2;2;
49708;PMS5003;35601;55.902;13.606;2024-01-16T13:01:26;2;2;
49708;PMS5003;35601;55.902;13.606;2024-01-16T13:03:51;1;1;
49708;PMS5003;35601;55.902;13.606;2024-01-16T13:06:17;6;2;
49708;PMS5003;35601;55.902;13.606;2024-01-16T13:08:43;2;2;
49708;PMS5003;35601;55.902;13.606;2024-01-16T13:11:08;3;3;
49708;PMS5003;35601;55.902;13.606;2024-01-16T13:13:34;2;2;
49708;PMS5003;35601;55.902;13.606;2024-01-16T13:15:59;1;1;
49708;PMS5003;35601;55.902;13.606;2024-01-16T13:18:26;1;1;
49708;PMS5003;35601;55.902;13.606;2024-01-16T13:20:51;2;2;
49708;PMS5003;35601;55.902;13.606;2024-01-16T13:23:16;3;1;
49708;PMS5003;35601;55.902;13.606;2024-01-16T13:25:42;2;2;
49708;PMS5003;35601;55.902;13.606;2024-01-16T13:28:07;2;2;
49708;PMS5003;35601;55.902;13.606;2024-01-16T13:30:33;1;1;
49708;PMS5003;35601;55.902;13.606;2024-01-16T13:32:58;2;2;
49708;PMS5003;35601;55.902;13.606;2024-01-16T13:35:24;2;1;
49708;PMS5003;35601;55.902;13.606;2024-01-16T13:37:50;1;1;
49708;PMS5003;35601;55.902;13.606;2024-01-16T13:40:15;2;2;
49708;PMS5003;35601;55.902;13.606;2024-01-16T13:42:41;3;1;
49708;PMS5003;35601;55.902;13.606;2024-01-16T13:45:07;3;3;
49708;PMS5003;35601;55.902;13.606;2024-01-16T13:47:32;1;1;
49708;PMS5003;35601;55.902;13.606;2024-01-16T13:49:57;2;2;
49708;PMS5003;35601;55.902;13.606;2024-01-16T13:52:23;5;2;
49708;PMS5003;35601;55.902;13.606;2024-01-16T13:54:49;4;2;
49708;PMS5003;35601;55.902;13.606;2024-01-16T13:57:14;9;8;
49708;PMS5003;35601;55.902;13.606;2024-01-16T13:59:40;5;4;
49708;PMS5003;35601;55.902;13.606;2024-01-16T14:02:06;9;6;
49708;PMS5003;35601;55.902;13.606;2024-01-16T14:04:31;12;4;
49708;PMS5003;35601;55.902;13.606;2024-01-16T14:06:57;13;6;
49708;PMS5003;35601;55.902;13.606;2024-01-16T14:09:22;10;6;
49708;PMS5003;35601;55.902;13.606;2024-01-16T14:11:48;9;5;
49708;PMS5003;35601;55.902;13.606;2024-01-16T14:14:13;10;8;
49708;PMS5003;35601;55.902;13.606;2024-01-16T14:16:39;9;5;
49708;PMS5003;35601;55.902;13.606;2024-01-16T14:19:04;6;6;
49708;PMS5003;35601;55.902;13.606;2024-01-16T14:21:30;5;5;
49708;PMS5003;35601;55.902;13.606;2024-01-16T14:23:56;10;8;
49708;PMS5003;35601;55.902;13.606;2024-01-16T14:26:21;4;4;
49708;PMS5003;35601;55.902;13.606;2024-01-16T14:28:47;12;9;
49708;PMS5003;35601;55.902;13.606;2024-01-16T14:31:12;5;5;
49708;PMS5003;35601;55.902;13.606;2024-01-16T14:33:38;9;5;
49708;PMS5003;35601;55.902;13.606;2024-01-16T14:36:04;5;3;
49708;PMS5003;35601;55.902;13.606;2024-01-16T14:38:29;5;4;
49708;PMS5003;35601;55.902;13.606;2024-01-16T14:40:55;4;2;
49708;PMS5003;35601;55.902;13.606;2024-01-16T14:43:20;2;2;
49708;PMS5003;35601;55.902;13.606;2024-01-16T14:45:46;2;2;
49708;PMS5003;35601;55.902;13.606;2024-01-16T14:48:11;2;2;
49708;PMS5003;35601;55.902;13.606;2024-01-16T14:50:37;2;2;
49708;PMS5003;35601;55.902;13.606;2024-01-16T14:53:03;5;5;
49708;PMS5003;35601;55.902;13.606;2024-01-16T14:55:28;9;6;
49708;PMS5003;35601;55.902;13.606;2024-01-16T14:57:54;55;43;
49708;PMS5003;35601;55.902;13.606;2024-01-16T15:00:19;13;9;
49708;PMS5003;35601;55.902;13.606;2024-01-16T15:02:45;14;9;
49708;PMS5003;35601;55.902;13.606;2024-01-16T15:05:10;6;6;
49708;PMS5003;35601;55.902;13.606;2024-01-16T15:07:36;5;4;
49708;PMS5003;35601;55.902;13.606;2024-01-16T15:10:03;4;4;
49708;PMS5003;35601;55.902;13.606;2024-01-16T15:12:27;6;5;
49708;PMS5003;35601;55.902;13.606;2024-01-16T15:14:53;6;6;
49708;PMS5003;35601;55.902;13.606;2024-01-16T15:17:19;6;4;
49708;PMS5003;35601;55.902;13.606;2024-01-16T15:19:44;9;8;
49708;PMS5003;35601;55.902;13.606;2024-01-16T15:22:10;9;6;
49708;PMS5003;35601;55.902;13.606;2024-01-16T15:24:35;14;10;
49708;PMS5003;35601;55.902;13.606;2024-01-16T15:27:01;9;9;
49708;PMS5003;35601;55.902;13.606;2024-01-16T15:29:27;9;8;
49708;PMS5003;35601;55.902;13.606;2024-01-16T15:31:52;12;12;
49708;PMS5003;35601;55.902;13.606;2024-01-16T15:34:17;17;17;
49708;PMS5003;35601;55.902;13.606;2024-01-16T15:36:43;8;8;
49708;PMS5003;35601;55.902;13.606;2024-01-16T15:39:09;9;9;
49708;PMS5003;35601;55.902;13.606;2024-01-16T15:41:34;17;16;
49708;PMS5003;35601;55.902;13.606;2024-01-16T15:43:59;13;9;
49708;PMS5003;35601;55.902;13.606;2024-01-16T15:46:25;20;13;
49708;PMS5003;35601;55.902;13.606;2024-01-16T15:48:51;9;8;
49708;PMS5003;35601;55.902;13.606;2024-01-16T15:51:16;13;12;
49708;PMS5003;35601;55.902;13.606;2024-01-16T15:53:42;17;10;
49708;PMS5003;35601;55.902;13.606;2024-01-16T15:56:07;12;10;
49708;PMS5003;35601;55.902;13.606;2024-01-16T15:58:33;21;19;
49708;PMS5003;35601;55.902;13.606;2024-01-16T16:00:58;28;25;
49708;PMS5003;35601;55.902;13.606;2024-01-16T16:03:23;50;35;
49708;PMS5003;35601;55.902;13.606;2024-01-16T16:05:49;35;27;
49708;PMS5003;35601;55.902;13.606;2024-01-16T16:08:14;38;31;
49708;PMS5003;35601;55.902;13.606;2024-01-16T16:10:39;42;30;
49708;PMS5003;35601;55.902;13.606;2024-01-16T16:13:04;53;42;
49708;PMS5003;35601;55.902;13.606;2024-01-16T16:15:30;56;35;
49708;PMS5003;35601;55.902;13.606;2024-01-16T16:17:55;49;42;
49708;PMS5003;35601;55.902;13.606;2024-01-16T16:20:21;49;39;
49708;PMS5003;35601;55.902;13.606;2024-01-16T16:22:46;42;31;
49708;PMS5003;35601;55.902;13.606;2024-01-16T16:25:11;22;17;